Midnight, Mississippi
Current Conditions -  °F | °C
As of 9:53 AM on Thursday 18 Dec 2014 (Local Time) from KGLH Reporting Station
Overcast Overcast  
Wind Chill: 42°   Ceiling: 3600
Heat Index: 45°   Visibility: 7mi
Dew Point: 41°   Wind: 6mph
Humidity: 86%   Direction: 120°ESE
Pressure: 30.24"   Gusts: NA
Location:  33.05°N, 90.57°W
Report Text: KGLH 181553Z AUTO 12005KT 7SM OVC036 07/05 A3024 RMK AO2 RAB37E53 SLP249 P0000 T00720050
Loading
Personal Weather Stations






























Interactive Weather Map New forecast layout! Learn more

10-Day Weather Forecast

Advertisements
Track Severe Weather on mobile